Airfield :
LOGIN :

Register | Disclaimer

   EN    FR    IT 

 










Legend :    VFR   Marginal VFR   IFR   Intensive IFR   Very Intensive IFR
Visi :
Ceiling :
>= 8 km
>= 3000ft
5 to 8 km
1000 to 3000 ft
1500m to 5 km
500 to 1000 ft
800 to 1500m
200 to 500 ft
< 800m
< 200 ft
Symbols :   Thunderstorms  Fog  Heavy snow  Heavy precipitations  Wind > 20 kt
SIGMETs :     Misc.  Thunderstorms  Icing  Turbulence  Mountain Waves  Volcanic Ashes






- Airport Elevation : 30 ft
- IATA code : CFN


EIDL - Donegal

CURRENT METAR :
  • 250930Z 02017KT 9999 FEW032 OVC041 12/05 Q1024

EXPIRED METARs :
  • 250900Z 02018KT 9999 OVC041 12/05 Q1025
  • 250830Z 02017KT 9999 FEW031 BKN037 OVC043 12/05 Q1025
  • 250800Z 01019KT 9999 FEW023 OVC034 11/06 Q1024

TAF TAF EIDL
Valid from the 25 at 09:00 until the 25 at 18:00 UTC


250800Z 2509/2518 01017KT 9999 FEW030 BKN035
PROB40
TEMPO 2509/2518 03020G30KT



MET'MAP, your aeronautical weather chart ! - Copyright ORBIFLY December 2007 - Disclaimer

ORBIFLY MET'MAP TEAM :

Programming & Development : Alexandra Zaïnal
Concept & original design : Baudouin d'Aumeries
Assistance for programming : Marc-Olivier Méhu
Technical & hardware support : Manuel Goepfert

Contact : metmap@orbifly.com




SOURCES & CREDITS :

   NOAA